Colchester, VT

06:42 EST le 27 novembre 2014 (GMT -0500)
RAWS ESSEX JUNCTION VT US | Change Station
CLOSE
Current Station
Stations météorologiques personnelles
Location: Burlington, VT
Altitude: 339 ft
Stations météo à proximité

Alt. 339 ft 44.51 °N, 73.12 °W | Updated 40 minutes ago

Overcast
Couvert
26 ° F
Paraît 26 ° F
N
2
Vent Variable Vent de NNO
Gusts 9.0 mph

Aujourd'hui
Haut(e) -- | Bas -- ° F
--% Risque de précip.
Hier
Haut(e) -- | Bas -- ° F
Precip. -- pouce
7:04 AM 4:16 PM
Lune montante, 28% visible
Pression 29.98 pouce
Visibilité 10.0 Miles terrestres
Nuages Couvert 1200 ft
Refroidissement éolien 26 ° F
Point de rosée 23 ° F
Humidité 90%
Précipitations 0.00 pouce
Profondeur de la couche neigeuse Non disponible.
UV 0 sur 12
Pollen .10 sur 12
Qualité de l'air Non disponible.
Flu Activity Non disponible.
METAR KBTV 271054Z 35008KT 10SM OVC012 M03/M06 A2997 RMK AO2 SLP152 SNE26 P0000 T10281056

More Conditions Fewer Conditions

Pression 29.98 pouce
Visibilité 10.0 Miles terrestres
Nuages Couvert 1200 ft
Refroidissement éolien 26 ° F
Point de rosée 23 ° F
Humidité 90%
Précipitations 0.00 pouce
Profondeur de la couche neigeuse Non disponible.
UV 0 sur 12
Pollen .10 sur 12
Qualité de l'air Non disponible.
Flu Activity Non disponible.
METAR KBTV 271054Z 35008KT 10SM OVC012 M03/M06 A2997 RMK AO2 SLP152 SNE26 P0000 T10281056

More Conditions Fewer Conditions

10-Day Weather Forecast

Almanac

Astronomie

Nov. 27, 2014 Lever Coucher
Temps réel
Crépuscule civil
Crépuscule nautique
Crépuscule astronomique
Lune
Durée de lumière visible
Longueur du jour
Tomorrow will be .
, % of the Moon is Illuminated

Extrêmes aujourd'hui

State Highs State Lows

Community

WunderPhotos

Upload Photos

1,773,970 Photos téléchargées !

WunderBlogs® & News

Nearby

Qualité de l'air

  Qualité de l'air Indice de la qualité de l'air Polluant
Not available.

Épaisseur de neige

Station Depth Altitude

Activité sismique

Ville Distance Mag. Time & Date
Minimum magnitude displayed is 2.5.

Températures des eaux côtières

Lieu Température

Stations météo à proximité